Sierra Vista, AZ (85650)

6:43 AM MST on December 07, 2016 (GMT -0700)
S. Pickett Pl. | | Change Station

Elev 4238 ft 31.47 °N, 110.14 °W | Updated 4 minutes ago

Overcast
Overcast
47.4 °F
Feels Like 47.4 °F
N
1.0
Wind Variable Wind from South
Gusts 2.0 mph

Today
High -- | Low -- °F
--% Chance of Precip.
Yesterday
High -- | Low -- °F
Precip. -- in
Pressure 29.92 in
Visibility 10.0 miles
Clouds Scattered Clouds 10000 ft
Overcast 21000 ft
Dew Point 37.4 °F
Humidity 68%
Rainfall 0.00 in
Snow Depth Not available.
7:07 AM 5:17 PM
First Quarter, 52% visible
METAR KFHU 071258Z AUTO 15005KT 10SM SCT100 OVC210 07/03 A3001 RMK AO2 SLP132 T00700025
Pressure 29.92 in
Visibility 10.0 miles
Clouds Scattered Clouds 10000 ft
Overcast 21000 ft
Dew Point 37.4 °F
Humidity 68%
Rainfall 0.00 in
Snow Depth Not available.
7:07 AM 5:17 PM
First Quarter, 52% visible
METAR KFHU 071258Z AUTO 15005KT 10SM SCT100 OVC210 07/03 A3001 RMK AO2 SLP132 T00700025

10-Day Weather Forecast

Almanac

Astronomy

Dec. 07, 2016 Rise Set
Actual Time
Civil Twilight
Nautical Twilight
Astronomical Twilight
Moon
Length of Visible Light
Length of Day
Tomorrow will be .
, % of the Moon is Illuminated

Today's Extremes

State Highs State Lows

Community

WunderPhotos

Upload Photos

1,956,114 photos uploaded!

WunderBlog® & News

Nearby

Air Quality

  Air Quality AQ Index Pollutant
Not available.

Snow Depth

Station Depth Elevation

Earthquake Activity

City Distance Mag. Time & Date
Minimum magnitude displayed is 2.5.

Coastal Water Temperatures

Place Temperature

Stations

Nearby Weather Stations

Station Location Temp. Windchill Dew Point Humidity Wind Precip. Elev Updated Type
                   

Watches & Warnings

There are currently no watches in effect.